Terminal Aerodrome Forecast
Issued by NWS Amarillo, TX

Current Version | Previous Version | Text Only | Print | Product List | Glossary On
Versions: 1 2 3 4 5 6 7 8 9 10 11 12 13 14 15 16 17 18 19
695
FTUS44 KAMA 281120
TAFAMA
TAF
KAMA 281120Z 2812/2912 01008KT P6SM FEW120 SCT200
     FM281900 14011KT P6SM SCT080
     FM290400 17010KT P6SM SCT040 BKN110=

USA.gov is the U.S. government's official web portal to all federal, state and local government web resources and services.